createdAt,value
2018-02-19T00:02:04.769Z,10.13
2018-02-19T00:04:32.279Z,10.50
2018-02-19T00:06:59.788Z,9.60
2018-02-19T00:09:27.389Z,10.80
2018-02-19T00:11:54.959Z,10.13
2018-02-19T00:14:22.468Z,9.80
2018-02-19T00:16:50.004Z,10.77
2018-02-19T00:19:17.550Z,10.67
2018-02-19T00:21:45.061Z,10.50
2018-02-19T00:24:12.595Z,10.20
2018-02-19T00:26:40.119Z,10.23
2018-02-19T00:29:07.628Z,10.60
2018-02-19T00:31:35.225Z,11.63
2018-02-19T00:34:02.761Z,10.57
2018-02-19T00:36:30.286Z,10.80
2018-02-19T00:38:57.798Z,11.10
2018-02-19T00:41:25.310Z,11.33
2018-02-19T00:43:52.819Z,11.07
2018-02-19T00:46:20.333Z,11.73
2018-02-19T00:48:47.847Z,11.23
2018-02-19T00:51:15.358Z,10.80
2018-02-19T00:53:42.881Z,10.40
2018-02-19T00:56:10.396Z,11.97
2018-02-19T00:58:37.909Z,10.77
2018-02-19T01:01:05.548Z,10.70
2018-02-19T01:03:33.052Z,10.07
2018-02-19T01:06:00.572Z,11.30
2018-02-19T01:08:28.095Z,10.40
2018-02-19T01:10:55.607Z,9.97
2018-02-19T01:13:23.124Z,11.50
2018-02-19T01:15:50.630Z,9.93
2018-02-19T01:18:18.143Z,10.07
2018-02-19T01:20:45.650Z,10.70
2018-02-19T01:23:13.165Z,10.50
2018-02-19T01:25:40.676Z,10.17
2018-02-19T01:28:08.183Z,10.70
2018-02-19T01:30:35.708Z,10.03
2018-02-19T01:33:03.226Z,11.00
2018-02-19T01:35:30.752Z,9.63
2018-02-19T01:37:58.322Z,10.73
2018-02-19T01:40:25.888Z,10.13
2018-02-19T01:42:53.418Z,10.27
2018-02-19T01:45:20.999Z,9.87
2018-02-19T01:47:48.562Z,11.10
2018-02-19T01:50:16.072Z,10.00
2018-02-19T01:52:43.585Z,10.13
2018-02-19T01:55:11.206Z,11.20
2018-02-19T01:57:38.761Z,10.53
2018-02-19T02:00:06.308Z,9.97
2018-02-19T02:02:33.916Z,9.97
2018-02-19T02:05:01.475Z,9.80
2018-02-19T02:07:28.983Z,9.73
2018-02-19T02:09:56.597Z,10.20
2018-02-19T02:12:24.109Z,10.13
2018-02-19T02:14:51.720Z,8.77
2018-02-19T02:17:19.229Z,10.10
2018-02-19T02:19:46.747Z,10.03
2018-02-19T02:22:14.261Z,10.33
2018-02-19T02:24:41.783Z,9.27
2018-02-19T02:27:09.295Z,9.23
2018-02-19T02:29:36.869Z,9.33
2018-02-19T02:32:04.377Z,9.33
2018-02-19T02:34:31.992Z,9.50
2018-02-19T02:36:59.518Z,10.03
2018-02-19T02:39:27.054Z,9.50
2018-02-19T02:41:54.675Z,9.87
2018-02-19T02:44:22.244Z,10.07
2018-02-19T02:46:49.765Z,9.60
2018-02-19T02:49:17.318Z,9.17
2018-02-19T02:51:44.858Z,9.53
2018-02-19T02:54:12.375Z,9.67
2018-02-19T02:56:39.905Z,10.43
2018-02-19T02:59:07.493Z,10.97
2018-02-19T03:01:35.013Z,10.03
2018-02-19T03:04:02.553Z,10.67
2018-02-19T03:06:30.064Z,9.97
2018-02-19T03:08:58.025Z,10.00
2018-02-19T03:11:25.612Z,10.33
2018-02-19T03:13:53.162Z,11.07
2018-02-19T03:16:20.670Z,10.90
2018-02-19T03:18:48.180Z,10.73
2018-02-19T03:21:15.706Z,10.70
2018-02-19T03:23:43.227Z,10.77
2018-02-19T03:26:10.756Z,10.70
2018-02-19T03:28:38.313Z,11.07
2018-02-19T03:31:05.836Z,10.60
2018-02-19T03:33:33.436Z,11.60
2018-02-19T03:36:01.104Z,11.43
2018-02-19T03:38:28.621Z,11.10
2018-02-19T03:40:56.221Z,10.30
2018-02-19T03:43:23.782Z,10.97
2018-02-19T03:45:51.296Z,11.40
2018-02-19T03:48:18.816Z,10.93
2018-02-19T03:50:46.324Z,11.37
2018-02-19T03:53:13.832Z,11.23
2018-02-19T03:55:41.345Z,11.03
2018-02-19T03:58:08.937Z,12.00
2018-02-19T04:00:36.456Z,11.30
2018-02-19T04:03:03.996Z,10.80
2018-02-19T04:05:31.616Z,11.03
2018-02-19T04:07:59.179Z,11.33
2018-02-19T04:10:26.728Z,11.43
2018-02-19T04:12:54.292Z,11.40
2018-02-19T04:15:21.857Z,12.13
2018-02-19T04:17:49.411Z,11.97
2018-02-19T04:20:16.977Z,11.57
2018-02-19T04:22:44.489Z,11.87
2018-02-19T04:25:12.095Z,11.53
2018-02-19T04:27:39.604Z,11.27
2018-02-19T04:30:07.127Z,11.90
2018-02-19T04:32:34.646Z,11.70
2018-02-19T04:35:02.238Z,12.13
2018-02-19T04:37:29.793Z,12.27
2018-02-19T04:39:57.296Z,12.20
2018-02-19T04:42:24.913Z,13.13
2018-02-19T04:44:53.981Z,12.83
2018-02-19T04:47:21.497Z,12.93
2018-02-19T04:49:49.011Z,12.40
2018-02-19T04:52:16.601Z,12.07
2018-02-19T04:54:44.148Z,12.83
2018-02-19T04:57:11.705Z,12.83
2018-02-19T04:59:39.217Z,13.83
2018-02-19T05:02:06.745Z,13.47
2018-02-19T05:04:34.260Z,12.80
2018-02-19T05:07:01.810Z,12.90
2018-02-19T05:09:29.336Z,13.07
2018-02-19T05:11:56.849Z,12.90
2018-02-19T05:14:24.388Z,13.23
2018-02-19T05:16:51.993Z,13.67
2018-02-19T05:19:19.539Z,14.53
2018-02-19T05:21:47.074Z,13.63
2018-02-19T05:24:14.604Z,13.47
2018-02-19T05:26:42.116Z,14.70
2018-02-19T05:29:09.681Z,14.17
2018-02-19T05:31:37.245Z,14.20
2018-02-19T05:34:04.759Z,14.33
2018-02-19T05:36:32.307Z,14.40
2018-02-19T05:38:59.920Z,14.60
2018-02-19T05:41:27.484Z,14.00
2018-02-19T05:43:54.992Z,16.03
2018-02-19T05:46:22.601Z,15.63
2018-02-19T05:48:50.129Z,16.13
2018-02-19T05:51:17.648Z,15.70
2018-02-19T05:53:45.283Z,14.30
2018-02-19T05:56:12.798Z,16.10
2018-02-19T05:58:40.339Z,16.20
2018-02-19T06:01:07.856Z,16.33
2018-02-19T06:03:35.430Z,16.20
2018-02-19T06:06:02.945Z,16.30
2018-02-19T06:08:30.479Z,16.00
2018-02-19T06:10:58.008Z,17.10
2018-02-19T06:13:25.557Z,16.73
2018-02-19T06:15:53.089Z,17.87
2018-02-19T06:18:20.600Z,16.67
2018-02-19T06:20:48.104Z,17.17
2018-02-19T06:23:15.629Z,18.60
2018-02-19T06:25:43.265Z,17.30
2018-02-19T06:28:10.835Z,18.00
2018-02-19T06:30:38.350Z,18.27
2018-02-19T06:33:05.937Z,17.17
2018-02-19T06:35:33.445Z,17.40
2018-02-19T06:38:00.955Z,17.93
2018-02-19T06:40:28.498Z,17.80
2018-02-19T06:42:56.008Z,17.73
2018-02-19T06:45:23.637Z,18.53
2018-02-19T06:47:51.144Z,18.83
2018-02-19T06:50:18.752Z,19.70
2018-02-19T06:52:46.302Z,19.00
2018-02-19T06:55:13.838Z,18.43
2018-02-19T06:57:41.357Z,19.83
2018-02-19T07:00:08.872Z,17.63
2018-02-19T07:02:36.465Z,18.90
2018-02-19T07:05:03.981Z,18.57
2018-02-19T07:07:31.511Z,18.87
2018-02-19T07:09:59.031Z,19.20
2018-02-19T07:12:26.593Z,19.43
2018-02-19T07:14:54.116Z,19.50
2018-02-19T07:17:21.708Z,20.33
2018-02-19T07:19:49.225Z,18.73
2018-02-19T07:22:16.739Z,19.40
2018-02-19T07:24:44.264Z,19.83
2018-02-19T07:27:11.804Z,20.43
2018-02-19T07:29:39.405Z,19.20
2018-02-19T07:32:06.970Z,19.87
2018-02-19T07:34:34.490Z,19.70
2018-02-19T07:37:02.089Z,19.03
2018-02-19T07:39:29.596Z,19.97
2018-02-19T07:41:57.118Z,19.53
2018-02-19T07:44:24.668Z,19.57
2018-02-19T07:46:52.203Z,19.20
2018-02-19T07:49:19.728Z,19.50
2018-02-19T07:51:47.257Z,20.43
2018-02-19T07:54:14.769Z,18.93
2018-02-19T07:56:42.367Z,20.40
2018-02-19T07:59:09.887Z,19.03
2018-02-19T08:01:37.410Z,20.17
2018-02-19T08:04:04.936Z,18.90
2018-02-19T08:06:32.501Z,19.73
2018-02-19T08:09:00.063Z,19.00
2018-02-19T08:11:27.575Z,18.23
2018-02-19T08:13:55.121Z,18.43
2018-02-19T08:16:22.658Z,18.13
2018-02-19T08:18:50.199Z,19.03
2018-02-19T08:21:17.708Z,17.43
2018-02-19T08:23:45.220Z,18.40
2018-02-19T08:26:12.729Z,18.80
2018-02-19T08:28:40.246Z,18.03
2018-02-19T08:31:07.764Z,18.53
2018-02-19T08:33:35.288Z,18.83
2018-02-19T08:36:02.797Z,17.97
2018-02-19T08:38:30.313Z,18.47
2018-02-19T08:40:57.839Z,17.77
2018-02-19T08:43:25.352Z,17.43
2018-02-19T08:45:52.901Z,17.53
2018-02-19T08:48:20.417Z,18.57
2018-02-19T08:50:47.932Z,17.63
2018-02-19T08:53:15.489Z,17.30
2018-02-19T08:55:42.997Z,17.07
2018-02-19T08:58:10.522Z,17.60
2018-02-19T09:00:38.044Z,17.17
2018-02-19T09:03:05.547Z,17.67
2018-02-19T09:05:33.062Z,17.17
2018-02-19T09:08:00.635Z,17.20
2018-02-19T09:10:28.151Z,17.83
2018-02-19T09:12:55.669Z,18.03
2018-02-19T09:15:23.183Z,18.53
2018-02-19T09:17:50.696Z,17.93
2018-02-19T09:20:18.214Z,19.10
2018-02-19T09:22:45.737Z,19.20
2018-02-19T09:25:13.249Z,18.40
2018-02-19T09:27:40.767Z,18.60
2018-02-19T09:30:08.281Z,18.40
2018-02-19T09:32:35.801Z,17.67
2018-02-19T09:35:03.312Z,18.83
2018-02-19T09:37:30.828Z,22.00
2018-02-19T09:39:58.340Z,18.37
2018-02-19T09:42:25.848Z,18.70
2018-02-19T09:44:53.385Z,17.80
2018-02-19T09:47:20.898Z,18.70
2018-02-19T09:49:48.419Z,18.03
2018-02-19T09:52:15.924Z,18.80
2018-02-19T09:54:43.433Z,18.60
2018-02-19T09:57:10.961Z,18.87
2018-02-19T09:59:38.480Z,18.53
2018-02-19T10:02:05.990Z,18.07
2018-02-19T10:04:33.497Z,17.57
2018-02-19T10:07:01.013Z,18.67
2018-02-19T10:09:28.538Z,17.73
2018-02-19T10:11:56.052Z,18.77
2018-02-19T10:14:23.569Z,18.77
2018-02-19T10:16:51.095Z,17.93
2018-02-19T10:19:18.607Z,19.07
2018-02-19T10:21:46.117Z,18.97
2018-02-19T10:24:13.636Z,18.53
2018-02-19T10:26:41.150Z,17.33
2018-02-19T10:29:08.667Z,18.33
2018-02-19T10:31:36.179Z,18.43
2018-02-19T10:34:03.688Z,19.17
2018-02-19T10:36:31.224Z,17.87
2018-02-19T10:38:58.732Z,18.50
2018-02-19T10:41:26.244Z,17.70
2018-02-19T10:43:53.748Z,19.43
2018-02-19T10:46:21.302Z,19.07
2018-02-19T10:48:48.815Z,17.00
2018-02-19T10:51:16.340Z,17.93
2018-02-19T10:53:43.857Z,17.57
2018-02-19T10:56:11.369Z,18.03
2018-02-19T10:58:44.849Z,18.00
2018-02-19T11:01:12.365Z,16.83
2018-02-19T11:03:39.883Z,17.97
2018-02-19T11:06:07.424Z,16.50
2018-02-19T11:08:34.942Z,18.40
2018-02-19T11:11:02.454Z,17.27
2018-02-19T11:13:29.977Z,18.30
2018-02-19T11:15:57.491Z,18.80
2018-02-19T11:18:25.001Z,18.03
2018-02-19T11:20:52.513Z,16.83
2018-02-19T11:23:20.054Z,17.00
2018-02-19T11:25:47.564Z,17.63
2018-02-19T11:28:15.073Z,16.73
2018-02-19T11:30:42.593Z,18.27
2018-02-19T11:33:10.128Z,17.67
2018-02-19T11:35:37.645Z,16.33
2018-02-19T11:38:05.167Z,17.33
2018-02-19T11:40:32.682Z,16.80
2018-02-19T11:43:00.197Z,17.37
2018-02-19T11:45:27.734Z,17.33
2018-02-19T11:47:55.261Z,16.87
2018-02-19T11:50:22.789Z,17.00
2018-02-19T11:52:50.293Z,16.87
2018-02-19T11:55:17.854Z,16.33
2018-02-19T11:57:45.345Z,16.80
2018-02-19T12:00:12.853Z,16.53
2018-02-19T12:02:40.381Z,15.73
2018-02-19T12:05:07.903Z,15.60
2018-02-19T12:07:35.420Z,17.57
2018-02-19T12:10:02.949Z,17.07
2018-02-19T12:12:30.460Z,16.03
2018-02-19T12:14:57.977Z,15.73
2018-02-19T12:17:25.494Z,15.97
2018-02-19T12:19:53.004Z,15.80
2018-02-19T12:22:20.523Z,16.33
2018-02-19T12:24:48.046Z,15.83
2018-02-19T12:27:15.553Z,16.63
2018-02-19T12:29:43.079Z,15.40
2018-02-19T12:32:10.589Z,14.93
2018-02-19T12:34:38.194Z,15.87
2018-02-19T12:37:05.704Z,15.03
2018-02-19T12:39:33.243Z,15.00
2018-02-19T12:42:00.771Z,15.60
2018-02-19T12:44:28.323Z,16.10
2018-02-19T12:46:55.824Z,15.03
2018-02-19T12:49:23.441Z,15.37
2018-02-19T12:51:50.960Z,14.23
2018-02-19T12:54:18.561Z,15.50
2018-02-19T12:56:46.081Z,14.70
2018-02-19T12:59:13.599Z,14.57
2018-02-19T13:01:41.113Z,15.47
2018-02-19T13:04:08.697Z,14.63
2018-02-19T13:06:36.204Z,15.17
2018-02-19T13:09:03.833Z,15.27
2018-02-19T13:11:31.377Z,14.80
2018-02-19T13:13:58.880Z,14.73
2018-02-19T13:16:26.509Z,14.17
2018-02-19T13:18:54.024Z,13.77
2018-02-19T13:21:21.556Z,13.67
2018-02-19T13:23:49.065Z,13.10
2018-02-19T13:26:18.122Z,12.97
2018-02-19T13:28:45.634Z,13.30
2018-02-19T13:31:13.158Z,13.47
2018-02-19T13:33:40.672Z,13.57
2018-02-19T13:36:08.271Z,13.13
2018-02-19T13:38:35.781Z,13.83
2018-02-19T13:41:03.415Z,12.87
2018-02-19T13:43:35.423Z,12.83
2018-02-19T13:46:02.938Z,12.03
2018-02-19T13:48:30.450Z,13.37
2018-02-19T13:50:57.964Z,11.60
2018-02-19T13:53:25.481Z,12.50
2018-02-19T13:55:52.994Z,13.33
2018-02-19T13:58:20.522Z,12.77
2018-02-19T14:00:48.038Z,12.43
2018-02-19T14:03:15.553Z,10.67
2018-02-19T14:05:43.113Z,11.03
2018-02-19T14:08:10.626Z,12.37
2018-02-19T14:10:38.148Z,11.23
2018-02-19T14:13:05.658Z,11.73
2018-02-19T14:15:33.173Z,12.37
2018-02-19T14:18:00.687Z,11.77
2018-02-19T14:20:28.204Z,12.30
2018-02-19T14:22:55.712Z,12.53
2018-02-19T14:25:23.224Z,13.37
2018-02-19T14:27:50.742Z,11.93
2018-02-19T14:30:18.253Z,13.10
2018-02-19T14:32:45.769Z,13.50
2018-02-19T14:35:13.297Z,12.47
2018-02-19T14:37:40.836Z,12.70
2018-02-19T14:40:08.355Z,12.83
2018-02-19T14:42:35.865Z,12.40
2018-02-19T14:45:03.374Z,12.70
2018-02-19T14:47:30.885Z,12.77
2018-02-19T14:49:58.392Z,13.43
2018-02-19T14:52:25.903Z,12.80
2018-02-19T14:54:53.422Z,13.77
2018-02-19T14:57:20.938Z,13.27
2018-02-19T14:59:49.308Z,12.53
2018-02-19T15:02:16.792Z,15.02
2018-02-19T15:04:44.309Z,13.60
2018-02-19T15:07:11.821Z,12.67
2018-02-19T15:09:39.329Z,12.53
2018-02-19T15:12:06.836Z,13.00
2018-02-19T15:14:34.369Z,13.27
2018-02-19T15:17:01.893Z,13.13
2018-02-19T15:19:29.404Z,12.70
2018-02-19T15:21:56.989Z,12.63
2018-02-19T15:24:24.513Z,13.33
2018-02-19T15:26:52.096Z,12.80
2018-02-19T15:29:19.604Z,12.73
2018-02-19T15:31:47.112Z,13.60
2018-02-19T15:34:14.627Z,13.43
2018-02-19T15:36:42.201Z,12.93
2018-02-19T15:39:09.803Z,13.33
2018-02-19T15:41:37.336Z,13.33
2018-02-19T15:44:04.881Z,13.10
2018-02-19T15:46:32.398Z,13.13
2018-02-19T15:48:59.916Z,12.97
2018-02-19T15:51:27.469Z,13.53
2018-02-19T15:53:54.984Z,13.37
2018-02-19T15:56:22.512Z,13.97
2018-02-19T15:58:50.033Z,13.83
2018-02-19T16:01:17.554Z,14.30
2018-02-19T16:03:45.077Z,14.90
2018-02-19T16:06:12.648Z,14.53
2018-02-19T16:08:40.156Z,14.67
2018-02-19T16:11:07.661Z,13.87
2018-02-19T16:13:35.226Z,15.57
2018-02-19T16:16:02.786Z,15.83
2018-02-19T16:18:30.292Z,15.90
2018-02-19T16:20:57.801Z,15.20
2018-02-19T16:23:25.371Z,15.53
2018-02-19T16:25:52.921Z,15.90
2018-02-19T16:28:20.482Z,15.57
2018-02-19T16:30:48.009Z,14.83
2018-02-19T16:33:15.602Z,15.73
2018-02-19T16:35:43.111Z,15.60
2018-02-19T16:38:10.773Z,15.80
2018-02-19T16:40:38.283Z,15.27
2018-02-19T16:43:05.841Z,16.30
2018-02-19T16:45:33.351Z,16.40
2018-02-19T16:48:00.868Z,14.67
2018-02-19T16:50:28.376Z,16.27
2018-02-19T16:52:55.892Z,16.67
2018-02-19T16:55:23.404Z,16.60
2018-02-19T16:57:50.909Z,15.50
2018-02-19T17:00:18.429Z,15.87
2018-02-19T17:02:45.969Z,16.93
2018-02-19T17:05:13.577Z,16.17
2018-02-19T17:07:41.104Z,16.00
2018-02-19T17:10:08.706Z,15.60
2018-02-19T17:12:36.253Z,16.30
2018-02-19T17:15:03.817Z,16.00
2018-02-19T17:17:31.372Z,15.63
2018-02-19T17:19:58.904Z,17.13
2018-02-19T17:22:26.433Z,17.20
2018-02-19T17:24:53.939Z,16.97
2018-02-19T17:27:21.459Z,17.53
2018-02-19T17:29:48.983Z,18.30
2018-02-19T17:32:16.492Z,18.03
2018-02-19T17:34:43.998Z,19.07
2018-02-19T17:37:11.504Z,17.33
2018-02-19T17:39:39.082Z,18.83
2018-02-19T17:42:06.681Z,18.10
2018-02-19T17:44:34.188Z,18.83
2018-02-19T17:47:01.801Z,18.20
2018-02-19T17:49:29.312Z,19.33
2018-02-19T17:51:56.849Z,19.50
2018-02-19T17:54:24.382Z,19.97
2018-02-19T17:56:51.928Z,19.70
2018-02-19T17:59:19.442Z,19.80
2018-02-19T18:01:46.985Z,20.83
2018-02-19T18:04:14.589Z,21.57
2018-02-19T18:06:42.113Z,19.87
2018-02-19T18:09:09.741Z,20.27
2018-02-19T18:11:37.256Z,21.47
2018-02-19T18:14:04.765Z,20.80
2018-02-19T18:16:32.268Z,18.90
2018-02-19T18:18:59.791Z,19.33
2018-02-19T18:21:27.310Z,20.17
2018-02-19T18:23:54.832Z,20.83
2018-02-19T18:26:22.343Z,20.60
2018-02-19T18:28:49.854Z,21.07
2018-02-19T18:31:17.369Z,21.73
2018-02-19T18:33:44.909Z,21.07
2018-02-19T18:36:12.421Z,24.87
2018-02-19T18:38:39.936Z,21.77
2018-02-19T18:41:07.456Z,20.87
2018-02-19T18:43:35.004Z,21.77
2018-02-19T18:46:02.515Z,21.43
2018-02-19T18:48:30.061Z,21.27
2018-02-19T18:50:57.574Z,20.67
2018-02-19T18:53:25.089Z,22.23
2018-02-19T18:55:52.595Z,21.13
2018-02-19T18:58:20.109Z,21.07
2018-02-19T19:00:47.617Z,20.97
2018-02-19T19:03:15.258Z,21.37
2018-02-19T19:05:42.804Z,22.67
2018-02-19T19:08:22.039Z,21.03
2018-02-19T19:10:52.534Z,20.93
2018-02-19T19:13:20.075Z,20.17
2018-02-19T19:15:47.613Z,20.83
2018-02-19T19:18:15.129Z,20.50
2018-02-19T19:20:42.652Z,20.77
2018-02-19T19:23:10.183Z,20.37
2018-02-19T19:25:37.709Z,21.33
2018-02-19T19:28:05.225Z,21.10
2018-02-19T19:30:32.744Z,21.10
2018-02-19T19:33:01.227Z,22.20
2018-02-19T19:35:28.749Z,21.20
2018-02-19T19:37:56.288Z,21.30
2018-02-19T19:40:23.841Z,21.23
2018-02-19T19:42:51.364Z,21.23
2018-02-19T19:45:18.905Z,20.87
2018-02-19T19:47:46.474Z,21.43
2018-02-19T19:50:13.989Z,22.03
2018-02-19T19:52:41.513Z,22.60
2018-02-19T19:55:09.145Z,21.40
2018-02-19T19:57:36.681Z,22.20
2018-02-19T20:00:04.294Z,20.80
2018-02-19T20:02:31.808Z,22.10
2018-02-19T20:04:59.388Z,21.67
2018-02-19T20:07:26.944Z,21.33
2018-02-19T20:09:55.009Z,21.20
2018-02-19T20:12:22.512Z,21.07
2018-02-19T20:14:50.141Z,21.17
2018-02-19T20:17:17.691Z,22.10
2018-02-19T20:19:45.200Z,20.27
2018-02-19T20:22:12.718Z,21.20
2018-02-19T20:24:40.228Z,20.50
2018-02-19T20:27:07.771Z,21.93
2018-02-19T20:29:35.277Z,21.83
2018-02-19T20:32:02.828Z,22.80
2018-02-19T20:34:30.345Z,21.97
2018-02-19T20:36:58.685Z,21.47
2018-02-19T20:39:26.197Z,20.83
2018-02-19T20:41:54.030Z,21.70
2018-02-19T20:44:21.558Z,21.00
2018-02-19T20:46:49.716Z,21.93
2018-02-19T20:49:17.234Z,23.03
2018-02-19T20:51:44.748Z,21.53
2018-02-19T20:54:12.281Z,23.03
2018-02-19T20:56:39.804Z,23.20
2018-02-19T20:59:07.330Z,22.20
2018-02-19T21:01:34.844Z,23.17
2018-02-19T21:04:02.361Z,23.13
2018-02-19T21:06:29.873Z,23.33
2018-02-19T21:08:57.414Z,24.27
2018-02-19T21:11:24.930Z,22.10
2018-02-19T21:13:52.442Z,22.93
2018-02-19T21:16:19.957Z,22.93
2018-02-19T21:18:47.473Z,23.17
2018-02-19T21:21:15.016Z,22.73
2018-02-19T21:23:42.532Z,21.43
2018-02-19T21:26:10.045Z,22.90
2018-02-19T21:28:37.553Z,23.17
2018-02-19T21:31:05.078Z,21.90
2018-02-19T21:33:32.592Z,22.83
2018-02-19T21:36:00.118Z,21.87
2018-02-19T21:38:27.646Z,22.37
2018-02-19T21:40:55.162Z,21.93
2018-02-19T21:43:22.678Z,21.90
2018-02-19T21:45:50.193Z,21.87
2018-02-19T21:48:17.719Z,22.23
2018-02-19T21:50:45.232Z,21.77
2018-02-19T21:53:12.758Z,22.43
2018-02-19T21:55:40.280Z,22.97
2018-02-19T21:58:07.799Z,22.10
2018-02-19T22:00:35.312Z,22.43
2018-02-19T22:03:02.862Z,21.17
2018-02-19T22:05:30.376Z,20.93
2018-02-19T22:07:57.893Z,24.67
2018-02-19T22:10:25.409Z,21.93
2018-02-19T22:12:52.930Z,22.80
2018-02-19T22:15:20.445Z,22.77
2018-02-19T22:17:47.973Z,22.03
2018-02-19T22:20:15.489Z,22.10
2018-02-19T22:22:42.997Z,23.23
2018-02-19T22:25:10.508Z,22.03
2018-02-19T22:27:38.021Z,22.87
2018-02-19T22:30:05.538Z,23.27
2018-02-19T22:32:33.070Z,22.97
2018-02-19T22:35:00.652Z,23.53
2018-02-19T22:37:28.161Z,23.93
2018-02-19T22:39:55.698Z,22.70
2018-02-19T22:42:23.208Z,23.47
2018-02-19T22:44:50.789Z,24.27
2018-02-19T22:47:18.309Z,22.80
2018-02-19T22:49:45.884Z,26.23
2018-02-19T22:52:13.586Z,25.80
2018-02-19T22:54:41.114Z,24.37
2018-02-19T22:57:08.656Z,23.73
2018-02-19T22:59:36.170Z,24.03
2018-02-19T23:02:03.680Z,25.43
2018-02-19T23:04:31.265Z,25.90
2018-02-19T23:06:58.842Z,24.80
2018-02-19T23:09:26.399Z,22.93
2018-02-19T23:11:53.922Z,24.97
2018-02-19T23:14:21.509Z,23.70
2018-02-19T23:16:49.039Z,24.93
2018-02-19T23:19:16.627Z,24.40
2018-02-19T23:21:44.174Z,24.67
2018-02-19T23:24:11.696Z,25.87
2018-02-19T23:26:39.318Z,25.73
2018-02-19T23:29:06.877Z,24.60
2018-02-19T23:31:34.886Z,24.70
2018-02-19T23:34:02.409Z,25.50
2018-02-19T23:36:29.924Z,26.30
2018-02-19T23:38:57.436Z,26.97
2018-02-19T23:41:24.958Z,26.17
2018-02-19T23:43:52.480Z,26.43
2018-02-19T23:46:20.006Z,25.97
2018-02-19T23:48:47.533Z,26.90
2018-02-19T23:51:15.055Z,27.10
2018-02-19T23:53:42.592Z,27.20
2018-02-19T23:56:10.130Z,27.83
2018-02-19T23:58:37.641Z,27.57
